sensor_id;sensor_type;location;lat;lon;timestamp;P1;durP1;ratioP1;P2;durP2;ratioP2
53483;SDS011;75581;50.088;19.966;2024-02-16T00:00:14;51.80;;;28.70;;
53483;SDS011;75581;50.088;19.966;2024-02-16T00:03:05;47.10;;;28.60;;
53483;SDS011;75581;50.088;19.966;2024-02-16T00:05:34;54.10;;;29.90;;
53483;SDS011;75581;50.088;19.966;2024-02-16T00:08:04;53.40;;;30.20;;
53483;SDS011;75581;50.088;19.966;2024-02-16T00:10:33;48.60;;;29.10;;
53483;SDS011;75581;50.088;19.966;2024-02-16T00:13:02;50.30;;;29.40;;
53483;SDS011;75581;50.088;19.966;2024-02-16T00:15:31;51.70;;;28.70;;
53483;SDS011;75581;50.088;19.966;2024-02-16T00:18:00;53.30;;;30.50;;
53483;SDS011;75581;50.088;19.966;2024-02-16T00:20:29;47.20;;;29.10;;
53483;SDS011;75581;50.088;19.966;2024-02-16T00:22:59;51.10;;;29.00;;
53483;SDS011;75581;50.088;19.966;2024-02-16T00:25:28;51.60;;;30.40;;
53483;SDS011;75581;50.088;19.966;2024-02-16T00:27:57;50.00;;;28.90;;
53483;SDS011;75581;50.088;19.966;2024-02-16T00:30:27;54.80;;;30.00;;
53483;SDS011;75581;50.088;19.966;2024-02-16T00:32:56;55.20;;;31.40;;
53483;SDS011;75581;50.088;19.966;2024-02-16T00:35:25;51.50;;;30.00;;
53483;SDS011;75581;50.088;19.966;2024-02-16T00:37:54;56.60;;;31.30;;
53483;SDS011;75581;50.088;19.966;2024-02-16T00:40:23;51.70;;;33.00;;
53483;SDS011;75581;50.088;19.966;2024-02-16T00:42:51;56.80;;;33.00;;
53483;SDS011;75581;50.088;19.966;2024-02-16T00:45:20;56.50;;;34.30;;
53483;SDS011;75581;50.088;19.966;2024-02-16T00:47:49;60.90;;;34.70;;
53483;SDS011;75581;50.088;19.966;2024-02-16T00:50:18;59.00;;;32.60;;
53483;SDS011;75581;50.088;19.966;2024-02-16T00:52:47;59.00;;;34.00;;
53483;SDS011;75581;50.088;19.966;2024-02-16T00:55:16;59.60;;;34.70;;
53483;SDS011;75581;50.088;19.966;2024-02-16T00:57:45;60.00;;;34.20;;
53483;SDS011;75581;50.088;19.966;2024-02-16T01:00:14;59.00;;;33.90;;
53483;SDS011;75581;50.088;19.966;2024-02-16T01:02:44;64.30;;;34.70;;
53483;SDS011;75581;50.088;19.966;2024-02-16T01:05:13;61.40;;;34.90;;
53483;SDS011;75581;50.088;19.966;2024-02-16T01:07:42;69.10;;;37.10;;
53483;SDS011;75581;50.088;19.966;2024-02-16T01:10:11;63.40;;;36.20;;
53483;SDS011;75581;50.088;19.966;2024-02-16T01:12:42;62.70;;;36.30;;
53483;SDS011;75581;50.088;19.966;2024-02-16T01:15:11;61.50;;;35.80;;
53483;SDS011;75581;50.088;19.966;2024-02-16T01:17:40;63.20;;;36.70;;
53483;SDS011;75581;50.088;19.966;2024-02-16T01:20:10;64.50;;;36.60;;
53483;SDS011;75581;50.088;19.966;2024-02-16T01:22:40;68.60;;;35.50;;
53483;SDS011;75581;50.088;19.966;2024-02-16T01:25:09;62.80;;;36.00;;
53483;SDS011;75581;50.088;19.966;2024-02-16T01:27:37;63.80;;;35.90;;
53483;SDS011;75581;50.088;19.966;2024-02-16T01:30:08;62.60;;;36.90;;
53483;SDS011;75581;50.088;19.966;2024-02-16T01:32:37;69.80;;;39.40;;
53483;SDS011;75581;50.088;19.966;2024-02-16T01:35:06;65.90;;;39.20;;
53483;SDS011;75581;50.088;19.966;2024-02-16T01:37:36;69.30;;;39.60;;
53483;SDS011;75581;50.088;19.966;2024-02-16T01:40:05;72.70;;;39.60;;
53483;SDS011;75581;50.088;19.966;2024-02-16T01:42:35;64.00;;;37.10;;
53483;SDS011;75581;50.088;19.966;2024-02-16T01:45:05;63.00;;;37.50;;
53483;SDS011;75581;50.088;19.966;2024-02-16T01:47:34;61.70;;;37.70;;
53483;SDS011;75581;50.088;19.966;2024-02-16T01:50:05;65.30;;;36.60;;
53483;SDS011;75581;50.088;19.966;2024-02-16T01:52:35;64.00;;;37.30;;
53483;SDS011;75581;50.088;19.966;2024-02-16T01:55:05;70.80;;;36.90;;
53483;SDS011;75581;50.088;19.966;2024-02-16T01:57:40;65.30;;;38.90;;
53483;SDS011;75581;50.088;19.966;2024-02-16T02:00:12;66.50;;;38.60;;
53483;SDS011;75581;50.088;19.966;2024-02-16T02:02:44;69.60;;;39.00;;
53483;SDS011;75581;50.088;19.966;2024-02-16T02:05:14;68.90;;;38.00;;
53483;SDS011;75581;50.088;19.966;2024-02-16T02:07:44;71.00;;;38.50;;
53483;SDS011;75581;50.088;19.966;2024-02-16T02:10:12;66.20;;;38.10;;
53483;SDS011;75581;50.088;19.966;2024-02-16T02:12:42;68.60;;;36.40;;
53483;SDS011;75581;50.088;19.966;2024-02-16T02:15:11;66.90;;;36.60;;
53483;SDS011;75581;50.088;19.966;2024-02-16T02:17:40;66.30;;;37.80;;
53483;SDS011;75581;50.088;19.966;2024-02-16T02:20:10;58.30;;;34.90;;
53483;SDS011;75581;50.088;19.966;2024-02-16T02:22:40;61.20;;;34.50;;
53483;SDS011;75581;50.088;19.966;2024-02-16T02:25:08;65.30;;;37.00;;
53483;SDS011;75581;50.088;19.966;2024-02-16T02:27:39;68.00;;;37.50;;
53483;SDS011;75581;50.088;19.966;2024-02-16T02:30:08;66.60;;;38.70;;
53483;SDS011;75581;50.088;19.966;2024-02-16T02:32:37;62.90;;;37.50;;
53483;SDS011;75581;50.088;19.966;2024-02-16T02:35:07;67.60;;;37.30;;
53483;SDS011;75581;50.088;19.966;2024-02-16T02:37:37;65.00;;;38.00;;
53483;SDS011;75581;50.088;19.966;2024-02-16T02:40:07;68.90;;;37.30;;
53483;SDS011;75581;50.088;19.966;2024-02-16T02:42:36;67.40;;;38.70;;
53483;SDS011;75581;50.088;19.966;2024-02-16T02:45:05;62.00;;;36.80;;
53483;SDS011;75581;50.088;19.966;2024-02-16T02:50:46;63.20;;;37.50;;
53483;SDS011;75581;50.088;19.966;2024-02-16T02:53:15;71.90;;;38.60;;
53483;SDS011;75581;50.088;19.966;2024-02-16T02:55:44;62.50;;;37.10;;
53483;SDS011;75581;50.088;19.966;2024-02-16T02:58:13;73.20;;;39.60;;
53483;SDS011;75581;50.088;19.966;2024-02-16T03:00:42;67.40;;;40.20;;
53483;SDS011;75581;50.088;19.966;2024-02-16T03:03:12;71.10;;;40.50;;
53483;SDS011;75581;50.088;19.966;2024-02-16T03:05:42;70.60;;;41.40;;
53483;SDS011;75581;50.088;19.966;2024-02-16T03:08:11;74.70;;;42.30;;
53483;SDS011;75581;50.088;19.966;2024-02-16T03:10:40;69.50;;;40.40;;
53483;SDS011;75581;50.088;19.966;2024-02-16T03:13:09;68.10;;;41.10;;
53483;SDS011;75581;50.088;19.966;2024-02-16T03:15:41;67.90;;;38.70;;
53483;SDS011;75581;50.088;19.966;2024-02-16T03:18:10;68.70;;;39.50;;
53483;SDS011;75581;50.088;19.966;2024-02-16T03:20:39;70.20;;;41.70;;
53483;SDS011;75581;50.088;19.966;2024-02-16T03:23:08;68.00;;;38.90;;
53483;SDS011;75581;50.088;19.966;2024-02-16T03:25:37;71.40;;;42.10;;
53483;SDS011;75581;50.088;19.966;2024-02-16T03:28:08;73.20;;;41.30;;
53483;SDS011;75581;50.088;19.966;2024-02-16T03:30:40;75.30;;;43.50;;
53483;SDS011;75581;50.088;19.966;2024-02-16T03:33:10;77.60;;;42.60;;
53483;SDS011;75581;50.088;19.966;2024-02-16T03:35:39;72.50;;;42.60;;
53483;SDS011;75581;50.088;19.966;2024-02-16T03:38:08;69.70;;;40.10;;
53483;SDS011;75581;50.088;19.966;2024-02-16T03:40:37;74.60;;;40.70;;
53483;SDS011;75581;50.088;19.966;2024-02-16T03:43:06;70.70;;;41.40;;
53483;SDS011;75581;50.088;19.966;2024-02-16T03:45:35;68.70;;;40.20;;
53483;SDS011;75581;50.088;19.966;2024-02-16T03:48:04;76.70;;;42.30;;
53483;SDS011;75581;50.088;19.966;2024-02-16T03:50:33;78.20;;;42.80;;
53483;SDS011;75581;50.088;19.966;2024-02-16T03:53:06;74.20;;;42.10;;
53483;SDS011;75581;50.088;19.966;2024-02-16T03:55:35;70.40;;;42.20;;
53483;SDS011;75581;50.088;19.966;2024-02-16T03:58:04;76.90;;;44.30;;
53483;SDS011;75581;50.088;19.966;2024-02-16T04:00:33;75.50;;;43.50;;
53483;SDS011;75581;50.088;19.966;2024-02-16T04:03:03;72.60;;;42.80;;
53483;SDS011;75581;50.088;19.966;2024-02-16T04:05:33;83.80;;;46.70;;
53483;SDS011;75581;50.088;19.966;2024-02-16T04:08:03;82.80;;;44.80;;
53483;SDS011;75581;50.088;19.966;2024-02-16T04:10:33;90.50;;;48.00;;
53483;SDS011;75581;50.088;19.966;2024-02-16T04:13:02;90.30;;;48.90;;
53483;SDS011;75581;50.088;19.966;2024-02-16T04:15:31;85.80;;;47.80;;
53483;SDS011;75581;50.088;19.966;2024-02-16T04:18:01;83.30;;;47.00;;
53483;SDS011;75581;50.088;19.966;2024-02-16T04:20:30;81.70;;;46.30;;
53483;SDS011;75581;50.088;19.966;2024-02-16T04:23:00;81.20;;;46.10;;
53483;SDS011;75581;50.088;19.966;2024-02-16T04:25:29;83.60;;;45.90;;
53483;SDS011;75581;50.088;19.966;2024-02-16T04:27:58;87.20;;;45.60;;
53483;SDS011;75581;50.088;19.966;2024-02-16T04:30:27;78.00;;;45.70;;
53483;SDS011;75581;50.088;19.966;2024-02-16T04:32:56;80.50;;;43.70;;
53483;SDS011;75581;50.088;19.966;2024-02-16T04:35:25;82.10;;;46.10;;
53483;SDS011;75581;50.088;19.966;2024-02-16T04:37:54;76.70;;;45.00;;
53483;SDS011;75581;50.088;19.966;2024-02-16T04:40:23;87.50;;;47.20;;
53483;SDS011;75581;50.088;19.966;2024-02-16T04:42:51;83.40;;;45.40;;
53483;SDS011;75581;50.088;19.966;2024-02-16T04:45:20;81.70;;;44.80;;
53483;SDS011;75581;50.088;19.966;2024-02-16T04:47:49;83.80;;;47.20;;
53483;SDS011;75581;50.088;19.966;2024-02-16T04:50:18;89.10;;;45.50;;
53483;SDS011;75581;50.088;19.966;2024-02-16T04:52:47;83.00;;;46.10;;
53483;SDS011;75581;50.088;19.966;2024-02-16T04:55:16;80.60;;;46.20;;
53483;SDS011;75581;50.088;19.966;2024-02-16T04:57:45;80.50;;;44.60;;
53483;SDS011;75581;50.088;19.966;2024-02-16T05:00:14;85.00;;;45.80;;
53483;SDS011;75581;50.088;19.966;2024-02-16T05:02:43;84.30;;;46.40;;
53483;SDS011;75581;50.088;19.966;2024-02-16T05:05:14;87.30;;;46.60;;
53483;SDS011;75581;50.088;19.966;2024-02-16T05:07:43;80.90;;;44.70;;
53483;SDS011;75581;50.088;19.966;2024-02-16T05:10:16;85.40;;;45.40;;
53483;SDS011;75581;50.088;19.966;2024-02-16T05:12:45;88.80;;;47.90;;
53483;SDS011;75581;50.088;19.966;2024-02-16T05:15:14;91.90;;;48.50;;
53483;SDS011;75581;50.088;19.966;2024-02-16T05:17:46;94.10;;;49.40;;
53483;SDS011;75581;50.088;19.966;2024-02-16T05:20:17;90.60;;;48.70;;
53483;SDS011;75581;50.088;19.966;2024-02-16T05:22:48;87.00;;;47.30;;
53483;SDS011;75581;50.088;19.966;2024-02-16T05:28:10;81.10;;;45.30;;
53483;SDS011;75581;50.088;19.966;2024-02-16T05:30:40;86.30;;;48.10;;
53483;SDS011;75581;50.088;19.966;2024-02-16T05:33:11;84.60;;;46.70;;
53483;SDS011;75581;50.088;19.966;2024-02-16T05:35:42;89.90;;;46.80;;
53483;SDS011;75581;50.088;19.966;2024-02-16T05:38:16;82.50;;;44.70;;
53483;SDS011;75581;50.088;19.966;2024-02-16T05:41:05;81.10;;;44.30;;
53483;SDS011;75581;50.088;19.966;2024-02-16T05:43:34;87.50;;;47.90;;
53483;SDS011;75581;50.088;19.966;2024-02-16T05:46:04;86.00;;;45.40;;
53483;SDS011;75581;50.088;19.966;2024-02-16T05:48:35;80.90;;;47.10;;
53483;SDS011;75581;50.088;19.966;2024-02-16T05:51:08;82.80;;;43.80;;
53483;SDS011;75581;50.088;19.966;2024-02-16T05:53:37;79.50;;;44.50;;
53483;SDS011;75581;50.088;19.966;2024-02-16T05:56:06;83.20;;;44.60;;
53483;SDS011;75581;50.088;19.966;2024-02-16T05:58:35;80.30;;;45.20;;
53483;SDS011;75581;50.088;19.966;2024-02-16T06:01:04;83.40;;;45.30;;
53483;SDS011;75581;50.088;19.966;2024-02-16T06:03:33;85.30;;;46.10;;
53483;SDS011;75581;50.088;19.966;2024-02-16T06:06:02;82.50;;;45.90;;
53483;SDS011;75581;50.088;19.966;2024-02-16T06:08:31;87.70;;;46.10;;
53483;SDS011;75581;50.088;19.966;2024-02-16T06:10:59;84.40;;;46.50;;
53483;SDS011;75581;50.088;19.966;2024-02-16T06:13:30;87.40;;;48.00;;
53483;SDS011;75581;50.088;19.966;2024-02-16T06:15:59;95.90;;;48.50;;
53483;SDS011;75581;50.088;19.966;2024-02-16T06:18:28;86.40;;;48.00;;
53483;SDS011;75581;50.088;19.966;2024-02-16T06:20:58;94.60;;;49.80;;
53483;SDS011;75581;50.088;19.966;2024-02-16T06:23:27;92.50;;;48.70;;
53483;SDS011;75581;50.088;19.966;2024-02-16T06:25:56;81.00;;;46.70;;
53483;SDS011;75581;50.088;19.966;2024-02-16T06:28:25;84.30;;;47.40;;
53483;SDS011;75581;50.088;19.966;2024-02-16T06:30:54;85.00;;;47.60;;
53483;SDS011;75581;50.088;19.966;2024-02-16T06:33:22;86.90;;;48.50;;
53483;SDS011;75581;50.088;19.966;2024-02-16T06:35:52;85.20;;;46.20;;
53483;SDS011;75581;50.088;19.966;2024-02-16T06:38:20;80.20;;;46.30;;
53483;SDS011;75581;50.088;19.966;2024-02-16T06:40:50;81.70;;;47.50;;
53483;SDS011;75581;50.088;19.966;2024-02-16T06:43:19;83.30;;;44.10;;
53483;SDS011;75581;50.088;19.966;2024-02-16T06:45:48;78.80;;;44.20;;
53483;SDS011;75581;50.088;19.966;2024-02-16T06:48:17;81.10;;;45.70;;
53483;SDS011;75581;50.088;19.966;2024-02-16T06:50:46;79.30;;;44.70;;
53483;SDS011;75581;50.088;19.966;2024-02-16T06:53:15;84.90;;;44.90;;
53483;SDS011;75581;50.088;19.966;2024-02-16T06:55:44;77.80;;;44.50;;
53483;SDS011;75581;50.088;19.966;2024-02-16T06:58:13;72.90;;;41.50;;
53483;SDS011;75581;50.088;19.966;2024-02-16T07:00:42;73.90;;;41.70;;
53483;SDS011;75581;50.088;19.966;2024-02-16T07:03:11;79.10;;;40.00;;
53483;SDS011;75581;50.088;19.966;2024-02-16T07:05:40;76.30;;;41.10;;
53483;SDS011;75581;50.088;19.966;2024-02-16T07:08:09;73.40;;;39.00;;
53483;SDS011;75581;50.088;19.966;2024-02-16T07:10:38;74.60;;;38.10;;
53483;SDS011;75581;50.088;19.966;2024-02-16T07:13:07;74.40;;;39.20;;
53483;SDS011;75581;50.088;19.966;2024-02-16T07:15:37;72.70;;;38.60;;
53483;SDS011;75581;50.088;19.966;2024-02-16T07:18:06;70.40;;;38.20;;
53483;SDS011;75581;50.088;19.966;2024-02-16T07:20:35;71.00;;;39.00;;
53483;SDS011;75581;50.088;19.966;2024-02-16T07:23:05;69.40;;;38.70;;
53483;SDS011;75581;50.088;19.966;2024-02-16T07:25:33;75.50;;;39.50;;
53483;SDS011;75581;50.088;19.966;2024-02-16T07:28:02;76.00;;;38.90;;
53483;SDS011;75581;50.088;19.966;2024-02-16T07:30:31;75.40;;;40.80;;
53483;SDS011;75581;50.088;19.966;2024-02-16T07:33:10;73.50;;;39.80;;
53483;SDS011;75581;50.088;19.966;2024-02-16T07:35:39;67.80;;;36.10;;
53483;SDS011;75581;50.088;19.966;2024-02-16T07:38:08;64.90;;;38.00;;
53483;SDS011;75581;50.088;19.966;2024-02-16T07:40:37;62.50;;;36.90;;
53483;SDS011;75581;50.088;19.966;2024-02-16T07:43:06;64.40;;;37.10;;
53483;SDS011;75581;50.088;19.966;2024-02-16T07:45:36;64.20;;;36.70;;
53483;SDS011;75581;50.088;19.966;2024-02-16T07:48:06;62.30;;;35.50;;
53483;SDS011;75581;50.088;19.966;2024-02-16T07:50:36;63.70;;;34.30;;
53483;SDS011;75581;50.088;19.966;2024-02-16T07:53:05;58.70;;;34.20;;
53483;SDS011;75581;50.088;19.966;2024-02-16T07:55:33;63.00;;;33.90;;
53483;SDS011;75581;50.088;19.966;2024-02-16T07:58:02;53.40;;;31.10;;
53483;SDS011;75581;50.088;19.966;2024-02-16T08:00:32;55.90;;;33.00;;
53483;SDS011;75581;50.088;19.966;2024-02-16T08:03:01;63.50;;;33.70;;
53483;SDS011;75581;50.088;19.966;2024-02-16T08:05:31;59.40;;;32.50;;
53483;SDS011;75581;50.088;19.966;2024-02-16T08:08:00;60.00;;;33.40;;
53483;SDS011;75581;50.088;19.966;2024-02-16T08:10:29;59.40;;;32.90;;
53483;SDS011;75581;50.088;19.966;2024-02-16T08:12:57;58.10;;;33.10;;
53483;SDS011;75581;50.088;19.966;2024-02-16T08:15:27;55.50;;;32.90;;
53483;SDS011;75581;50.088;19.966;2024-02-16T08:17:56;64.80;;;35.20;;
53483;SDS011;75581;50.088;19.966;2024-02-16T08:20:25;54.50;;;33.90;;
53483;SDS011;75581;50.088;19.966;2024-02-16T08:22:54;58.10;;;32.60;;
53483;SDS011;75581;50.088;19.966;2024-02-16T08:25:23;60.50;;;34.00;;
53483;SDS011;75581;50.088;19.966;2024-02-16T08:27:52;50.00;;;32.20;;
53483;SDS011;75581;50.088;19.966;2024-02-16T08:30:21;45.00;;;30.10;;
53483;SDS011;75581;50.088;19.966;2024-02-16T08:32:50;49.70;;;29.20;;
53483;SDS011;75581;50.088;19.966;2024-02-16T08:35:19;47.00;;;29.40;;
53483;SDS011;75581;50.088;19.966;2024-02-16T08:37:48;45.70;;;30.10;;
53483;SDS011;75581;50.088;19.966;2024-02-16T08:40:17;53.70;;;29.60;;
53483;SDS011;75581;50.088;19.966;2024-02-16T08:42:46;48.30;;;28.70;;
53483;SDS011;75581;50.088;19.966;2024-02-16T08:45:15;43.20;;;28.50;;
53483;SDS011;75581;50.088;19.966;2024-02-16T08:47:46;42.00;;;27.00;;
53483;SDS011;75581;50.088;19.966;2024-02-16T08:50:19;44.50;;;26.90;;
53483;SDS011;75581;50.088;19.966;2024-02-16T08:52:48;48.30;;;27.10;;
53483;SDS011;75581;50.088;19.966;2024-02-16T08:55:17;44.10;;;25.70;;
53483;SDS011;75581;50.088;19.966;2024-02-16T08:57:46;41.70;;;26.70;;
53483;SDS011;75581;50.088;19.966;2024-02-16T09:00:15;43.40;;;26.70;;
53483;SDS011;75581;50.088;19.966;2024-02-16T09:02:46;42.40;;;27.60;;
53483;SDS011;75581;50.088;19.966;2024-02-16T09:05:15;41.40;;;25.50;;
53483;SDS011;75581;50.088;19.966;2024-02-16T09:07:44;36.20;;;24.50;;
53483;SDS011;75581;50.088;19.966;2024-02-16T09:10:13;42.60;;;25.30;;
53483;SDS011;75581;50.088;19.966;2024-02-16T09:12:43;35.40;;;24.00;;
53483;SDS011;75581;50.088;19.966;2024-02-16T09:15:11;40.50;;;25.00;;
53483;SDS011;75581;50.088;19.966;2024-02-16T09:17:41;42.70;;;25.70;;
53483;SDS011;75581;50.088;19.966;2024-02-16T09:20:10;47.10;;;24.70;;
53483;SDS011;75581;50.088;19.966;2024-02-16T09:22:40;36.00;;;24.70;;
53483;SDS011;75581;50.088;19.966;2024-02-16T09:25:14;37.60;;;23.40;;
53483;SDS011;75581;50.088;19.966;2024-02-16T09:27:43;33.10;;;22.70;;
53483;SDS011;75581;50.088;19.966;2024-02-16T09:30:14;31.50;;;21.70;;
53483;SDS011;75581;50.088;19.966;2024-02-16T09:32:43;32.80;;;20.10;;
53483;SDS011;75581;50.088;19.966;2024-02-16T09:35:12;26.60;;;19.80;;
53483;SDS011;75581;50.088;19.966;2024-02-16T09:37:41;34.00;;;20.70;;
53483;SDS011;75581;50.088;19.966;2024-02-16T09:40:13;29.10;;;20.30;;
53483;SDS011;75581;50.088;19.966;2024-02-16T09:42:47;27.40;;;18.60;;
53483;SDS011;75581;50.088;19.966;2024-02-16T09:45:17;25.90;;;19.00;;
53483;SDS011;75581;50.088;19.966;2024-02-16T09:47:46;31.50;;;19.40;;
53483;SDS011;75581;50.088;19.966;2024-02-16T09:50:27;32.70;;;20.50;;
53483;SDS011;75581;50.088;19.966;2024-02-16T09:52:57;33.50;;;20.40;;
53483;SDS011;75581;50.088;19.966;2024-02-16T09:55:29;31.40;;;19.80;;
53483;SDS011;75581;50.088;19.966;2024-02-16T09:58:02;28.80;;;18.90;;
53483;SDS011;75581;50.088;19.966;2024-02-16T10:00:33;26.70;;;17.80;;
53483;SDS011;75581;50.088;19.966;2024-02-16T10:03:02;27.40;;;18.30;;
53483;SDS011;75581;50.088;19.966;2024-02-16T10:05:32;39.10;;;20.40;;
53483;SDS011;75581;50.088;19.966;2024-02-16T10:08:10;29.70;;;17.10;;
53483;SDS011;75581;50.088;19.966;2024-02-16T10:10:41;30.30;;;18.10;;
53483;SDS011;75581;50.088;19.966;2024-02-16T10:13:27;25.00;;;15.60;;
53483;SDS011;75581;50.088;19.966;2024-02-16T10:16:17;26.80;;;15.50;;
53483;SDS011;75581;50.088;19.966;2024-02-16T10:18:45;23.60;;;15.00;;
53483;SDS011;75581;50.088;19.966;2024-02-16T10:21:23;28.50;;;16.10;;
53483;SDS011;75581;50.088;19.966;2024-02-16T10:23:57;23.60;;;16.70;;
53483;SDS011;75581;50.088;19.966;2024-02-16T10:26:34;27.30;;;18.40;;
53483;SDS011;75581;50.088;19.966;2024-02-16T10:29:09;28.10;;;18.30;;
53483;SDS011;75581;50.088;19.966;2024-02-16T10:31:43;24.50;;;16.90;;
53483;SDS011;75581;50.088;19.966;2024-02-16T10:34:13;32.60;;;19.40;;
53483;SDS011;75581;50.088;19.966;2024-02-16T10:36:45;27.10;;;17.70;;
53483;SDS011;75581;50.088;19.966;2024-02-16T10:39:14;32.20;;;18.70;;
53483;SDS011;75581;50.088;19.966;2024-02-16T10:41:44;29.40;;;17.90;;
53483;SDS011;75581;50.088;19.966;2024-02-16T10:44:15;31.40;;;17.80;;
53483;SDS011;75581;50.088;19.966;2024-02-16T10:46:43;33.00;;;17.40;;
53483;SDS011;75581;50.088;19.966;2024-02-16T10:49:12;26.40;;;17.50;;
53483;SDS011;75581;50.088;19.966;2024-02-16T10:51:47;38.30;;;16.60;;
53483;SDS011;75581;50.088;19.966;2024-02-16T10:54:21;29.30;;;17.10;;
53483;SDS011;75581;50.088;19.966;2024-02-16T10:56:55;33.90;;;16.50;;
53483;SDS011;75581;50.088;19.966;2024-02-16T10:59:24;29.50;;;16.30;;
53483;SDS011;75581;50.088;19.966;2024-02-16T11:02:02;23.60;;;14.20;;
53483;SDS011;75581;50.088;19.966;2024-02-16T11:04:37;29.60;;;15.90;;
53483;SDS011;75581;50.088;19.966;2024-02-16T11:07:27;24.40;;;14.20;;
53483;SDS011;75581;50.088;19.966;2024-02-16T11:09:56;25.90;;;12.70;;
53483;SDS011;75581;50.088;19.966;2024-02-16T11:12:32;20.30;;;11.90;;
53483;SDS011;75581;50.088;19.966;2024-02-16T11:15:06;19.60;;;11.10;;
53483;SDS011;75581;50.088;19.966;2024-02-16T11:17:36;22.10;;;11.50;;
53483;SDS011;75581;50.088;19.966;2024-02-16T11:20:06;10.60;;;7.80;;
53483;SDS011;75581;50.088;19.966;2024-02-16T11:22:36;15.90;;;9.60;;
53483;SDS011;75581;50.088;19.966;2024-02-16T11:25:08;14.40;;;9.30;;
53483;SDS011;75581;50.088;19.966;2024-02-16T11:27:37;17.30;;;10.80;;
53483;SDS011;75581;50.088;19.966;2024-02-16T11:30:11;24.40;;;12.60;;
53483;SDS011;75581;50.088;19.966;2024-02-16T11:32:42;21.00;;;12.20;;
53483;SDS011;75581;50.088;19.966;2024-02-16T11:35:12;19.00;;;9.30;;
53483;SDS011;75581;50.088;19.966;2024-02-16T11:37:41;13.60;;;8.00;;
53483;SDS011;75581;50.088;19.966;2024-02-16T11:40:11;18.00;;;10.10;;
53483;SDS011;75581;50.088;19.966;2024-02-16T11:42:41;16.50;;;10.50;;
53483;SDS011;75581;50.088;19.966;2024-02-16T11:45:12;20.80;;;10.30;;
53483;SDS011;75581;50.088;19.966;2024-02-16T11:47:41;19.70;;;9.90;;
53483;SDS011;75581;50.088;19.966;2024-02-16T11:50:10;16.80;;;8.60;;
53483;SDS011;75581;50.088;19.966;2024-02-16T11:52:40;12.70;;;7.50;;
53483;SDS011;75581;50.088;19.966;2024-02-16T11:55:09;13.80;;;7.50;;
53483;SDS011;75581;50.088;19.966;2024-02-16T11:57:41;17.50;;;7.60;;
53483;SDS011;75581;50.088;19.966;2024-02-16T12:00:11;11.40;;;6.90;;
53483;SDS011;75581;50.088;19.966;2024-02-16T12:02:44;12.70;;;7.40;;
53483;SDS011;75581;50.088;19.966;2024-02-16T12:05:13;15.20;;;7.70;;
53483;SDS011;75581;50.088;19.966;2024-02-16T12:07:44;14.10;;;7.70;;
53483;SDS011;75581;50.088;19.966;2024-02-16T12:10:15;14.80;;;8.40;;
53483;SDS011;75581;50.088;19.966;2024-02-16T12:12:47;15.20;;;9.10;;
53483;SDS011;75581;50.088;19.966;2024-02-16T12:15:16;13.70;;;7.90;;
53483;SDS011;75581;50.088;19.966;2024-02-16T12:17:46;12.90;;;8.10;;
53483;SDS011;75581;50.088;19.966;2024-02-16T12:20:26;12.90;;;8.40;;
53483;SDS011;75581;50.088;19.966;2024-02-16T12:22:56;15.70;;;8.00;;
53483;SDS011;75581;50.088;19.966;2024-02-16T12:25:27;14.50;;;7.90;;
53483;SDS011;75581;50.088;19.966;2024-02-16T12:27:56;14.70;;;7.30;;
53483;SDS011;75581;50.088;19.966;2024-02-16T12:30:25;19.00;;;8.70;;
53483;SDS011;75581;50.088;19.966;2024-02-16T12:32:54;19.30;;;10.90;;
53483;SDS011;75581;50.088;19.966;2024-02-16T12:35:23;18.40;;;10.10;;
53483;SDS011;75581;50.088;19.966;2024-02-16T12:37:53;14.40;;;9.00;;
53483;SDS011;75581;50.088;19.966;2024-02-16T12:40:22;15.70;;;9.40;;
53483;SDS011;75581;50.088;19.966;2024-02-16T12:42:51;14.70;;;8.60;;
53483;SDS011;75581;50.088;19.966;2024-02-16T12:45:20;15.90;;;9.20;;
53483;SDS011;75581;50.088;19.966;2024-02-16T12:47:49;16.30;;;8.60;;
53483;SDS011;75581;50.088;19.966;2024-02-16T12:50:19;18.50;;;9.40;;
53483;SDS011;75581;50.088;19.966;2024-02-16T12:52:48;16.80;;;9.20;;
53483;SDS011;75581;50.088;19.966;2024-02-16T12:55:26;20.00;;;9.40;;
53483;SDS011;75581;50.088;19.966;2024-02-16T12:57:56;15.00;;;10.30;;
53483;SDS011;75581;50.088;19.966;2024-02-16T13:00:25;15.30;;;10.00;;
53483;SDS011;75581;50.088;19.966;2024-02-16T13:02:54;14.30;;;7.90;;
53483;SDS011;75581;50.088;19.966;2024-02-16T13:05:25;14.70;;;8.70;;
53483;SDS011;75581;50.088;19.966;2024-02-16T13:07:55;14.20;;;9.00;;
53483;SDS011;75581;50.088;19.966;2024-02-16T13:10:25;14.00;;;8.00;;
53483;SDS011;75581;50.088;19.966;2024-02-16T13:12:53;18.40;;;9.40;;
53483;SDS011;75581;50.088;19.966;2024-02-16T13:15:22;15.70;;;8.70;;
53483;SDS011;75581;50.088;19.966;2024-02-16T13:17:56;11.30;;;7.50;;
53483;SDS011;75581;50.088;19.966;2024-02-16T13:20:25;10.90;;;7.70;;
53483;SDS011;75581;50.088;19.966;2024-02-16T13:22:54;13.80;;;8.00;;
53483;SDS011;75581;50.088;19.966;2024-02-16T13:25:23;13.80;;;7.80;;
53483;SDS011;75581;50.088;19.966;2024-02-16T13:27:52;15.50;;;8.10;;
53483;SDS011;75581;50.088;19.966;2024-02-16T13:30:21;11.30;;;7.50;;
53483;SDS011;75581;50.088;19.966;2024-02-16T13:32:50;11.60;;;7.20;;
53483;SDS011;75581;50.088;19.966;2024-02-16T13:35:19;18.30;;;7.90;;
53483;SDS011;75581;50.088;19.966;2024-02-16T13:37:49;12.90;;;7.20;;
53483;SDS011;75581;50.088;19.966;2024-02-16T13:40:18;11.80;;;7.50;;
53483;SDS011;75581;50.088;19.966;2024-02-16T13:42:47;12.20;;;7.20;;
53483;SDS011;75581;50.088;19.966;2024-02-16T13:45:16;14.00;;;7.20;;
53483;SDS011;75581;50.088;19.966;2024-02-16T13:47:45;10.40;;;7.40;;
53483;SDS011;75581;50.088;19.966;2024-02-16T13:50:14;14.40;;;7.10;;
53483;SDS011;75581;50.088;19.966;2024-02-16T13:52:43;12.80;;;6.80;;
53483;SDS011;75581;50.088;19.966;2024-02-16T13:55:12;10.80;;;6.70;;
53483;SDS011;75581;50.088;19.966;2024-02-16T13:57:41;12.50;;;6.70;;
53483;SDS011;75581;50.088;19.966;2024-02-16T14:00:10;9.50;;;6.60;;
53483;SDS011;75581;50.088;19.966;2024-02-16T14:02:40;10.60;;;6.70;;
53483;SDS011;75581;50.088;19.966;2024-02-16T14:05:09;11.80;;;7.00;;
53483;SDS011;75581;50.088;19.966;2024-02-16T14:07:39;8.80;;;6.30;;
53483;SDS011;75581;50.088;19.966;2024-02-16T14:10:21;10.10;;;6.30;;
53483;SDS011;75581;50.088;19.966;2024-02-16T14:12:50;11.70;;;7.10;;
53483;SDS011;75581;50.088;19.966;2024-02-16T14:15:18;12.10;;;6.60;;
53483;SDS011;75581;50.088;19.966;2024-02-16T14:17:48;8.00;;;6.10;;
53483;SDS011;75581;50.088;19.966;2024-02-16T14:20:18;8.60;;;6.10;;
53483;SDS011;75581;50.088;19.966;2024-02-16T14:22:48;13.30;;;6.40;;
53483;SDS011;75581;50.088;19.966;2024-02-16T14:25:17;14.70;;;6.60;;
53483;SDS011;75581;50.088;19.966;2024-02-16T14:27:47;11.60;;;6.20;;
53483;SDS011;75581;50.088;19.966;2024-02-16T14:30:16;11.30;;;6.50;;
53483;SDS011;75581;50.088;19.966;2024-02-16T14:32:45;9.00;;;6.20;;